createdAt,value
2023-03-06T00:00:58.793Z,10.60
2023-03-06T00:03:28.494Z,9.00
2023-03-06T00:05:59.269Z,9.70
2023-03-06T00:08:29.489Z,10.10
2023-03-06T00:10:58.508Z,8.80
2023-03-06T00:13:30.413Z,12.60
2023-03-06T00:16:01.469Z,10.60
2023-03-06T00:18:30.660Z,8.70
2023-03-06T00:20:59.452Z,7.80
2023-03-06T00:23:28.216Z,7.90
2023-03-06T00:25:56.912Z,9.30
2023-03-06T00:28:25.880Z,8.50
2023-03-06T00:30:54.692Z,8.00
2023-03-06T00:33:23.459Z,7.90
2023-03-06T00:35:52.558Z,8.40
2023-03-06T00:38:21.251Z,9.10
2023-03-06T00:40:51.270Z,8.10
2023-03-06T00:43:19.958Z,10.10
2023-03-06T00:45:49.102Z,7.70
2023-03-06T00:48:18.849Z,8.60
2023-03-06T00:50:47.553Z,8.30
2023-03-06T00:53:16.330Z,8.10
2023-03-06T00:55:46.033Z,9.20
2023-03-06T00:58:14.631Z,9.60
2023-03-06T01:00:43.626Z,10.10
2023-03-06T01:03:13.049Z,8.00
2023-03-06T01:05:41.720Z,7.00
2023-03-06T01:08:10.795Z,8.00
2023-03-06T01:10:40.907Z,10.40
2023-03-06T01:13:11.149Z,7.80
2023-03-06T01:15:40.028Z,9.80
2023-03-06T01:18:09.024Z,9.50
2023-03-06T01:20:39.565Z,9.10
2023-03-06T01:23:08.545Z,10.40
2023-03-06T01:25:37.515Z,8.60
2023-03-06T01:28:06.224Z,8.30
2023-03-06T01:30:35.007Z,9.20
2023-03-06T01:33:04.404Z,8.50
2023-03-06T01:35:33.027Z,9.00
2023-03-06T01:38:01.764Z,11.40
2023-03-06T01:40:35.480Z,12.60
2023-03-06T01:43:29.860Z,12.30
2023-03-06T01:46:33.067Z,11.50
2023-03-06T01:49:27.037Z,12.40
2023-03-06T01:52:01.094Z,13.50
2023-03-06T01:54:31.993Z,12.10
2023-03-06T01:57:06.320Z,11.00
2023-03-06T01:59:36.216Z,12.70
2023-03-06T02:02:08.786Z,11.80
2023-03-06T02:04:39.878Z,14.40
2023-03-06T02:07:09.052Z,10.20
2023-03-06T02:09:38.754Z,12.30
2023-03-06T02:12:12.551Z,12.30
2023-03-06T02:14:43.292Z,12.30
2023-03-06T02:17:15.600Z,11.10
2023-03-06T02:19:53.490Z,12.90
2023-03-06T02:22:23.196Z,11.40
2023-03-06T02:25:23.600Z,12.30
2023-03-06T02:27:52.492Z,12.10
2023-03-06T02:30:21.787Z,12.10
2023-03-06T02:32:51.495Z,11.90
2023-03-06T02:35:26.144Z,13.30
2023-03-06T02:37:54.933Z,12.00
2023-03-06T02:40:24.833Z,12.40
2023-03-06T02:42:56.827Z,13.10
2023-03-06T02:45:45.559Z,12.70
2023-03-06T02:48:15.543Z,11.90
2023-03-06T02:50:44.757Z,10.40
2023-03-06T02:53:15.177Z,11.50
2023-03-06T02:55:45.006Z,13.20
2023-03-06T02:58:13.783Z,12.80
2023-03-06T03:00:43.615Z,13.30
2023-03-06T03:03:12.364Z,12.80
2023-03-06T03:05:42.288Z,12.00
2023-03-06T03:08:21.926Z,13.40
2023-03-06T03:10:52.569Z,12.10
2023-03-06T03:13:22.166Z,11.70
2023-03-06T03:16:07.655Z,14.00
2023-03-06T03:18:36.747Z,11.10
2023-03-06T03:21:11.650Z,7.60
2023-03-06T03:23:41.077Z,13.60
2023-03-06T03:26:18.908Z,14.40
2023-03-06T03:28:56.262Z,10.70
2023-03-06T03:31:25.214Z,12.20
2023-03-06T03:33:54.040Z,13.10
2023-03-06T03:36:23.456Z,12.50
2023-03-06T03:38:53.147Z,7.80
2023-03-06T03:41:22.053Z,11.50
2023-03-06T03:43:50.733Z,14.80
2023-03-06T03:46:21.053Z,10.20
2023-03-06T03:48:51.169Z,11.70
2023-03-06T03:51:20.474Z,12.50
2023-03-06T03:53:51.939Z,12.30
2023-03-06T03:56:24.590Z,11.80
2023-03-06T03:59:01.498Z,14.60
2023-03-06T04:01:33.550Z,12.60
2023-03-06T04:04:02.753Z,17.60
2023-03-06T04:06:31.731Z,18.70
2023-03-06T04:09:00.529Z,22.00
2023-03-06T04:11:29.610Z,22.30
2023-03-06T04:13:58.606Z,21.60
2023-03-06T04:16:27.847Z,21.20
2023-03-06T04:18:57.239Z,24.60
2023-03-06T04:21:26.414Z,21.80
2023-03-06T04:23:55.731Z,16.50
2023-03-06T04:26:24.711Z,23.70
2023-03-06T04:28:53.688Z,19.20
2023-03-06T04:31:22.940Z,19.10
2023-03-06T04:33:51.812Z,14.90
2023-03-06T04:36:32.957Z,24.20
2023-03-06T04:39:14.373Z,19.90
2023-03-06T04:41:43.666Z,21.40
2023-03-06T04:44:12.324Z,19.50
2023-03-06T04:46:41.134Z,18.70
2023-03-06T04:49:10.014Z,15.80
2023-03-06T04:51:38.899Z,14.30
2023-03-06T04:54:07.693Z,13.90
2023-03-06T04:56:36.569Z,12.90
2023-03-06T04:59:05.702Z,13.90
2023-03-06T05:01:34.488Z,11.60
2023-03-06T05:04:03.680Z,13.80
2023-03-06T05:06:32.611Z,13.30
2023-03-06T05:09:02.553Z,15.30
2023-03-06T05:11:31.438Z,13.50
2023-03-06T05:14:00.277Z,14.60
2023-03-06T05:16:29.101Z,13.70
2023-03-06T05:18:58.232Z,12.80
2023-03-06T05:21:27.104Z,12.80
2023-03-06T05:23:56.018Z,11.70
2023-03-06T05:26:25.311Z,12.40
2023-03-06T05:28:55.952Z,11.70
2023-03-06T05:31:31.908Z,14.50
2023-03-06T05:34:01.203Z,11.50
2023-03-06T05:36:29.968Z,14.20
2023-03-06T05:38:58.687Z,13.30
2023-03-06T05:41:27.649Z,12.10
2023-03-06T05:43:57.464Z,12.90
2023-03-06T05:46:26.551Z,13.10
2023-03-06T05:48:55.965Z,11.90
2023-03-06T05:51:25.461Z,14.10
2023-03-06T05:53:54.056Z,9.60
2023-03-06T05:56:22.728Z,12.30
2023-03-06T05:58:52.136Z,13.20
2023-03-06T06:01:21.633Z,16.10
2023-03-06T06:03:50.372Z,13.20
2023-03-06T06:06:19.212Z,16.60
2023-03-06T06:08:49.028Z,13.00
2023-03-06T06:11:19.142Z,13.80
2023-03-06T06:13:49.064Z,12.60
2023-03-06T06:16:19.411Z,16.30
2023-03-06T06:18:48.165Z,11.40
2023-03-06T06:21:16.857Z,14.70
2023-03-06T06:23:46.768Z,16.60
2023-03-06T06:26:15.472Z,15.30
2023-03-06T06:28:44.568Z,15.20
2023-03-06T06:31:13.888Z,18.00
2023-03-06T06:33:43.038Z,17.90
2023-03-06T06:36:22.100Z,17.60
2023-03-06T06:38:55.874Z,15.80
2023-03-06T06:44:16.562Z,16.60
2023-03-06T06:49:35.690Z,14.80
2023-03-06T06:52:05.489Z,16.00
2023-03-06T06:54:35.020Z,15.70
2023-03-06T06:57:03.893Z,15.70
2023-03-06T06:59:32.790Z,14.30
2023-03-06T07:02:01.690Z,16.00
2023-03-06T07:04:31.300Z,15.20
2023-03-06T07:07:01.618Z,16.70
2023-03-06T07:09:31.513Z,17.50
2023-03-06T07:12:00.313Z,14.90
2023-03-06T07:14:29.088Z,18.70
2023-03-06T07:16:59.313Z,19.20
2023-03-06T07:19:28.034Z,20.90
2023-03-06T07:21:56.901Z,15.70
2023-03-06T07:24:27.031Z,14.80
2023-03-06T07:26:55.789Z,16.30
2023-03-06T07:29:24.475Z,15.90
2023-03-06T07:31:53.172Z,21.40
2023-03-06T07:34:23.088Z,15.00
2023-03-06T07:36:52.560Z,17.80
2023-03-06T07:39:21.280Z,17.00
2023-03-06T07:41:49.978Z,16.70
2023-03-06T07:44:19.255Z,16.40
2023-03-06T07:46:48.108Z,18.60
2023-03-06T07:49:17.543Z,18.00
2023-03-06T07:51:46.230Z,17.20
2023-03-06T07:54:14.955Z,16.80
2023-03-06T07:56:43.709Z,20.60
2023-03-06T07:59:12.504Z,17.50
2023-03-06T08:01:41.399Z,16.40
2023-03-06T08:04:10.206Z,17.80
2023-03-06T08:06:39.077Z,14.70
2023-03-06T08:09:08.695Z,16.50
2023-03-06T08:11:37.358Z,15.80
2023-03-06T08:14:06.043Z,15.60
2023-03-06T08:16:34.955Z,18.30
2023-03-06T08:19:03.921Z,15.90
2023-03-06T08:21:32.612Z,18.20
2023-03-06T08:24:01.696Z,17.10
2023-03-06T08:26:31.937Z,16.60
2023-03-06T08:29:02.376Z,17.40
2023-03-06T08:31:37.432Z,22.10
2023-03-06T08:34:08.418Z,15.60
2023-03-06T08:36:38.252Z,17.10
2023-03-06T08:39:08.161Z,14.30
2023-03-06T08:41:37.769Z,15.80
2023-03-06T08:44:06.844Z,14.70
2023-03-06T08:46:36.371Z,14.00
2023-03-06T08:49:05.154Z,15.90
2023-03-06T08:51:34.151Z,15.50
2023-03-06T08:54:03.021Z,17.00
2023-03-06T08:56:34.620Z,13.30
2023-03-06T08:59:05.228Z,16.80
2023-03-06T09:01:37.099Z,17.10
2023-03-06T09:04:08.417Z,17.60
2023-03-06T09:06:42.546Z,14.50
2023-03-06T09:09:11.943Z,16.90
2023-03-06T09:11:40.716Z,17.40
2023-03-06T09:14:09.716Z,13.30
2023-03-06T09:16:38.823Z,15.80
2023-03-06T09:19:07.717Z,16.10
2023-03-06T09:21:36.805Z,16.90
2023-03-06T09:24:06.489Z,17.30
2023-03-06T09:26:45.409Z,15.10
2023-03-06T09:29:16.717Z,12.80
2023-03-06T09:31:46.188Z,13.00
2023-03-06T09:34:14.777Z,13.40
2023-03-06T09:36:55.808Z,15.40
2023-03-06T09:39:26.800Z,14.30
2023-03-06T09:41:57.747Z,14.80
2023-03-06T09:44:29.882Z,15.30
2023-03-06T09:47:21.608Z,12.40
2023-03-06T09:49:50.699Z,12.90
2023-03-06T09:52:34.669Z,13.80
2023-03-06T09:55:13.362Z,14.60
2023-03-06T09:57:46.001Z,11.90
2023-03-06T10:00:19.357Z,15.00
2023-03-06T10:03:19.342Z,14.80
2023-03-06T10:05:53.959Z,16.60
2023-03-06T10:08:52.224Z,15.60
2023-03-06T10:11:32.665Z,13.40
2023-03-06T10:14:19.214Z,14.30
2023-03-06T10:16:48.022Z,16.40
2023-03-06T10:19:19.592Z,16.00
2023-03-06T10:22:02.791Z,17.40
2023-03-06T10:24:45.683Z,15.50
2023-03-06T10:27:32.831Z,13.80
2023-03-06T10:30:46.532Z,14.40
2023-03-06T10:33:21.407Z,16.30
2023-03-06T10:35:52.707Z,13.10
2023-03-06T10:38:28.160Z,14.50
2023-03-06T10:41:17.282Z,14.70
2023-03-06T10:44:05.814Z,13.00
2023-03-06T10:46:40.089Z,12.80
2023-03-06T10:49:31.342Z,14.90
2023-03-06T10:52:07.192Z,12.40
2023-03-06T10:54:44.157Z,13.70
2023-03-06T10:57:30.262Z,11.00
2023-03-06T11:00:06.468Z,12.70
2023-03-06T11:02:38.824Z,13.20
2023-03-06T11:05:19.464Z,14.50
2023-03-06T11:07:56.835Z,12.30
2023-03-06T11:10:26.583Z,12.10
2023-03-06T11:13:07.904Z,12.50
2023-03-06T11:15:36.741Z,12.00
2023-03-06T11:18:08.497Z,11.60
2023-03-06T11:20:52.415Z,12.20
2023-03-06T11:23:31.413Z,14.40
2023-03-06T11:26:19.716Z,13.80
2023-03-06T11:29:23.651Z,13.40
2023-03-06T11:32:11.572Z,13.00
2023-03-06T11:34:54.116Z,11.70
2023-03-06T11:37:33.014Z,11.70
2023-03-06T11:40:01.935Z,12.60
2023-03-06T11:42:35.102Z,12.80
2023-03-06T11:45:25.463Z,11.60
2023-03-06T11:48:12.486Z,12.00
2023-03-06T11:50:50.376Z,12.20
2023-03-06T11:53:21.974Z,12.70
2023-03-06T11:56:07.934Z,17.80
2023-03-06T11:58:51.771Z,15.20
2023-03-06T12:01:24.275Z,12.20
2023-03-06T12:04:14.837Z,14.80
2023-03-06T12:06:49.788Z,14.90
2023-03-06T12:09:44.999Z,13.50
2023-03-06T12:12:38.872Z,11.10
2023-03-06T12:15:52.696Z,12.90
2023-03-06T12:18:40.948Z,15.20
2023-03-06T12:21:25.213Z,10.20
2023-03-06T12:24:03.420Z,12.50
2023-03-06T12:26:51.143Z,13.00
2023-03-06T12:29:49.728Z,14.80
2023-03-06T12:32:39.944Z,13.60
2023-03-06T12:35:24.328Z,13.10
2023-03-06T12:37:58.812Z,11.90
2023-03-06T12:40:46.410Z,12.00
2023-03-06T12:43:31.031Z,14.20
2023-03-06T12:46:13.577Z,14.90
2023-03-06T12:48:45.589Z,12.10
2023-03-06T12:51:17.727Z,13.30
2023-03-06T12:53:47.634Z,12.90
2023-03-06T12:56:17.856Z,15.30
2023-03-06T12:58:51.827Z,11.10
2023-03-06T13:01:33.133Z,11.80
2023-03-06T13:04:49.746Z,12.10
2023-03-06T13:07:30.732Z,11.60
2023-03-06T13:10:25.008Z,10.40
2023-03-06T13:13:02.006Z,11.90
2023-03-06T13:15:43.843Z,12.10
2023-03-06T13:18:24.457Z,10.80
2023-03-06T13:20:53.766Z,11.40
2023-03-06T13:23:45.882Z,11.90
2023-03-06T13:26:26.562Z,11.20
2023-03-06T13:28:58.324Z,12.70
2023-03-06T13:31:30.074Z,11.00
2023-03-06T13:34:04.524Z,12.60
2023-03-06T13:36:34.620Z,11.60
2023-03-06T13:39:07.713Z,12.30
2023-03-06T13:41:45.268Z,13.20
2023-03-06T13:44:39.704Z,12.80
2023-03-06T13:47:21.984Z,12.40
2023-03-06T13:49:50.787Z,13.80
2023-03-06T13:52:43.414Z,13.60
2023-03-06T13:55:29.924Z,10.10
2023-03-06T13:58:38.632Z,14.50
2023-03-06T14:01:10.351Z,13.90
2023-03-06T14:04:04.879Z,15.90
2023-03-06T14:06:37.457Z,13.90
2023-03-06T14:09:28.260Z,14.30
2023-03-06T14:12:19.379Z,15.20
2023-03-06T14:14:57.744Z,16.90
2023-03-06T14:17:35.189Z,17.70
2023-03-06T14:20:18.791Z,19.50
2023-03-06T14:22:47.720Z,18.80
2023-03-06T14:25:31.367Z,18.80
2023-03-06T14:28:12.306Z,17.20
2023-03-06T14:30:50.333Z,16.90
2023-03-06T14:33:29.012Z,17.50
2023-03-06T14:36:01.405Z,24.90
2023-03-06T14:38:34.008Z,17.10
2023-03-06T14:41:04.939Z,15.00
2023-03-06T14:43:33.734Z,19.90
2023-03-06T14:46:07.598Z,19.40
2023-03-06T14:48:39.643Z,16.90
2023-03-06T14:51:21.702Z,15.20
2023-03-06T14:53:51.663Z,18.00
2023-03-06T14:56:23.076Z,15.20
2023-03-06T14:58:59.490Z,17.40
2023-03-06T15:01:49.547Z,16.80
2023-03-06T15:04:24.433Z,17.80
2023-03-06T15:06:54.502Z,16.30
2023-03-06T15:09:27.648Z,14.80
2023-03-06T15:12:08.873Z,17.20
2023-03-06T15:14:40.035Z,14.20
2023-03-06T15:17:42.245Z,16.80
2023-03-06T15:20:43.392Z,16.20
2023-03-06T15:23:34.313Z,15.80
2023-03-06T15:26:29.269Z,16.90
2023-03-06T15:29:22.613Z,14.90
2023-03-06T15:31:51.408Z,14.50
2023-03-06T15:34:24.147Z,16.00
2023-03-06T15:36:58.634Z,17.30
2023-03-06T15:39:27.433Z,14.50
2023-03-06T15:42:05.020Z,16.90
2023-03-06T15:44:34.630Z,14.80
2023-03-06T15:47:08.704Z,15.70
2023-03-06T15:49:39.514Z,16.50
2023-03-06T15:52:10.221Z,17.00
2023-03-06T15:54:39.817Z,16.30
2023-03-06T15:57:16.136Z,17.80
2023-03-06T15:59:45.738Z,17.50
2023-03-06T16:02:20.153Z,17.30
2023-03-06T16:04:49.933Z,17.80
2023-03-06T16:07:19.538Z,15.20
2023-03-06T16:09:48.843Z,16.30
2023-03-06T16:12:20.313Z,18.80
2023-03-06T16:14:50.408Z,17.00
2023-03-06T16:17:20.051Z,17.70
2023-03-06T16:19:51.328Z,19.00
2023-03-06T16:22:22.502Z,23.10
2023-03-06T16:24:53.327Z,21.00
2023-03-06T16:27:26.230Z,22.80
2023-03-06T16:29:55.847Z,21.50
2023-03-06T16:32:28.622Z,22.00
2023-03-06T16:34:58.775Z,20.80
2023-03-06T16:39:53.872Z,21.40
2023-03-06T16:42:24.483Z,25.60
2023-03-06T16:44:55.241Z,23.60
2023-03-06T16:47:25.043Z,20.50
2023-03-06T16:49:59.560Z,23.70
2023-03-06T16:52:29.671Z,20.40
2023-03-06T16:55:01.400Z,22.30
2023-03-06T16:57:36.789Z,19.30
2023-03-06T17:00:07.390Z,22.50
2023-03-06T17:02:37.853Z,20.60
2023-03-06T17:05:10.227Z,23.30
2023-03-06T17:07:40.287Z,24.40
2023-03-06T17:10:12.202Z,25.20
2023-03-06T17:12:43.364Z,20.40
2023-03-06T17:15:14.051Z,21.90
2023-03-06T17:17:44.463Z,22.60
2023-03-06T17:20:14.799Z,22.10
2023-03-06T17:22:43.789Z,23.40
2023-03-06T17:25:13.192Z,20.30
2023-03-06T17:27:41.991Z,24.20
2023-03-06T17:30:11.859Z,24.30
2023-03-06T17:32:41.644Z,19.40
2023-03-06T17:35:11.010Z,19.90
2023-03-06T17:37:41.064Z,19.50
2023-03-06T17:40:12.022Z,19.20
2023-03-06T17:42:42.501Z,19.10
2023-03-06T17:45:13.206Z,19.30
2023-03-06T17:47:43.207Z,18.40
2023-03-06T17:50:13.378Z,18.60
2023-03-06T17:52:45.501Z,19.90
2023-03-06T17:55:17.729Z,16.60
2023-03-06T17:57:48.034Z,23.00
2023-03-06T18:00:19.070Z,22.30
2023-03-06T18:02:49.497Z,24.70
2023-03-06T18:05:21.448Z,26.30
2023-03-06T18:07:52.168Z,28.00
2023-03-06T18:10:22.300Z,29.30
2023-03-06T18:12:52.826Z,31.70
2023-03-06T18:15:27.050Z,23.90
2023-03-06T18:17:58.188Z,26.50
2023-03-06T18:20:29.484Z,26.90
2023-03-06T18:23:04.994Z,25.90
2023-03-06T18:25:35.776Z,24.90
2023-03-06T18:28:07.314Z,21.50
2023-03-06T18:30:42.762Z,22.20
2023-03-06T18:33:13.952Z,24.00
2023-03-06T18:35:44.732Z,25.30
2023-03-06T18:38:15.809Z,23.90
2023-03-06T18:40:46.770Z,23.50
2023-03-06T18:43:16.591Z,28.50
2023-03-06T18:46:00.999Z,33.10
2023-03-06T18:48:34.848Z,38.90
2023-03-06T18:51:06.987Z,32.00
2023-03-06T18:53:38.404Z,29.90
2023-03-06T18:56:11.708Z,31.60
2023-03-06T18:58:41.939Z,33.10
2023-03-06T19:01:12.958Z,27.80
2023-03-06T19:03:45.186Z,26.60
2023-03-06T19:06:17.893Z,26.00
2023-03-06T19:08:50.349Z,24.00
2023-03-06T19:11:21.806Z,26.40
2023-03-06T19:13:52.159Z,28.50
2023-03-06T19:16:27.344Z,28.50
2023-03-06T19:19:01.792Z,29.70
2023-03-06T19:21:35.116Z,23.70
2023-03-06T19:24:08.577Z,29.50
2023-03-06T19:26:42.048Z,27.30
2023-03-06T19:29:15.255Z,28.90
2023-03-06T19:31:46.348Z,27.00
2023-03-06T19:34:15.860Z,25.60
2023-03-06T19:36:46.950Z,27.30
2023-03-06T19:39:19.321Z,31.60
2023-03-06T19:41:49.943Z,24.00
2023-03-06T19:44:22.668Z,29.60
2023-03-06T19:46:58.365Z,29.10
2023-03-06T19:49:32.018Z,31.80
2023-03-06T19:52:04.309Z,26.20
2023-03-06T19:54:35.916Z,33.00
2023-03-06T19:57:07.547Z,32.40
2023-03-06T19:59:39.890Z,36.50
2023-03-06T20:02:16.824Z,32.70
2023-03-06T20:04:48.393Z,33.40
2023-03-06T20:07:19.153Z,28.30
2023-03-06T20:09:54.345Z,34.10
2023-03-06T20:12:24.661Z,29.20
2023-03-06T20:14:56.785Z,31.90
2023-03-06T20:17:29.787Z,30.10
2023-03-06T20:20:01.029Z,24.70
2023-03-06T20:22:32.698Z,28.20
2023-03-06T20:25:05.924Z,28.50
2023-03-06T20:27:38.509Z,22.70
2023-03-06T20:30:09.699Z,25.30
2023-03-06T20:32:43.656Z,26.90
2023-03-06T20:35:13.676Z,27.70
2023-03-06T20:37:46.746Z,25.50
2023-03-06T20:40:19.532Z,32.90
2023-03-06T20:42:53.170Z,29.10
2023-03-06T20:45:25.342Z,30.40
2023-03-06T20:48:02.771Z,30.20
2023-03-06T20:50:36.153Z,29.60
2023-03-06T20:53:07.745Z,28.00
2023-03-06T20:55:39.147Z,32.70
2023-03-06T20:58:11.020Z,26.40
2023-03-06T21:00:44.156Z,27.10
2023-03-06T21:03:17.401Z,27.80
2023-03-06T21:05:48.869Z,30.80
2023-03-06T21:08:21.501Z,28.70
2023-03-06T21:10:51.556Z,28.20
2023-03-06T21:13:21.334Z,26.60
2023-03-06T21:15:50.878Z,28.70
2023-03-06T21:18:20.064Z,31.70
2023-03-06T21:20:50.063Z,40.00
2023-03-06T21:23:22.159Z,33.40
2023-03-06T21:25:52.493Z,34.80
2023-03-06T21:28:21.993Z,36.80
2023-03-06T21:30:51.835Z,32.90
2023-03-06T21:33:21.004Z,33.00
2023-03-06T21:35:51.649Z,32.60
2023-03-06T21:38:20.835Z,35.20
2023-03-06T21:40:49.917Z,39.10
2023-03-06T21:43:19.514Z,35.90
2023-03-06T21:45:52.888Z,33.50
2023-03-06T21:48:21.930Z,36.30
2023-03-06T21:50:50.817Z,36.50
2023-03-06T21:53:19.587Z,32.80
2023-03-06T21:55:48.366Z,34.40
2023-03-06T21:58:17.669Z,32.20
2023-03-06T22:00:46.270Z,35.30
2023-03-06T22:03:15.062Z,33.80
2023-03-06T22:05:43.944Z,33.70
2023-03-06T22:08:12.926Z,32.40
2023-03-06T22:10:42.275Z,35.00
2023-03-06T22:13:10.924Z,34.10
2023-03-06T22:15:39.814Z,31.00
2023-03-06T22:18:16.074Z,36.30
2023-03-06T22:20:45.679Z,35.60
2023-03-06T22:23:14.993Z,34.90
2023-03-06T22:25:44.797Z,33.60
2023-03-06T22:28:15.313Z,34.20
2023-03-06T22:30:44.115Z,35.50
2023-03-06T22:33:13.000Z,34.50
2023-03-06T22:35:41.717Z,35.10
2023-03-06T22:38:10.475Z,36.00
2023-03-06T22:40:39.154Z,34.10
2023-03-06T22:43:07.954Z,35.20
2023-03-06T22:45:36.938Z,33.40
2023-03-06T22:48:11.043Z,33.90
2023-03-06T22:50:40.326Z,31.10
2023-03-06T22:53:09.028Z,30.00
2023-03-06T22:55:37.806Z,33.50
2023-03-06T22:58:06.588Z,27.80
2023-03-06T23:00:36.411Z,32.90
2023-03-06T23:03:05.141Z,29.60
2023-03-06T23:05:34.097Z,34.70
2023-03-06T23:08:02.877Z,33.30
2023-03-06T23:10:31.357Z,35.50
2023-03-06T23:13:19.008Z,32.10
2023-03-06T23:16:07.849Z,30.70
2023-03-06T23:18:55.182Z,32.20
2023-03-06T23:21:42.503Z,32.20
2023-03-06T23:24:29.838Z,28.20
2023-03-06T23:26:58.913Z,31.20
2023-03-06T23:29:27.614Z,30.50
2023-03-06T23:31:56.696Z,29.80
2023-03-06T23:34:25.999Z,33.30
2023-03-06T23:36:54.574Z,28.00
2023-03-06T23:39:24.093Z,28.70
2023-03-06T23:41:52.982Z,33.90
2023-03-06T23:44:21.664Z,34.00
2023-03-06T23:46:50.356Z,39.90
2023-03-06T23:49:21.040Z,37.40
2023-03-06T23:51:50.812Z,38.00
2023-03-06T23:54:19.566Z,34.00
2023-03-06T23:56:48.476Z,37.30
2023-03-06T23:59:17.353Z,38.60
